createdAt,value
2022-09-15T00:01:45.400Z,38.70
2022-09-15T00:04:12.422Z,47.75
2022-09-15T00:06:39.447Z,41.80
2022-09-15T00:09:06.492Z,41.60
2022-09-15T00:11:34.738Z,42.13
2022-09-15T00:14:04.838Z,48.85
2022-09-15T00:16:34.173Z,41.22
2022-09-15T00:19:02.909Z,44.00
2022-09-15T00:21:33.292Z,49.88
2022-09-15T00:24:01.473Z,48.65
2022-09-15T00:26:30.410Z,53.00
2022-09-15T00:28:58.679Z,47.17
2022-09-15T00:31:27.055Z,49.13
2022-09-15T00:33:56.285Z,41.20
2022-09-15T00:36:24.645Z,45.47
2022-09-15T00:38:51.915Z,48.90
2022-09-15T00:41:20.404Z,45.35
2022-09-15T00:43:53.290Z,47.58
2022-09-15T00:46:43.192Z,53.88
2022-09-15T00:49:34.094Z,53.85
2022-09-15T00:52:06.955Z,51.70
2022-09-15T00:54:53.112Z,58.85
2022-09-15T00:57:56.692Z,54.15
2022-09-15T01:00:27.613Z,53.83
2022-09-15T01:02:55.469Z,51.30
2022-09-15T01:05:37.697Z,65.75
2022-09-15T01:08:09.323Z,55.85
2022-09-15T01:10:39.789Z,61.60
2022-09-15T01:13:15.310Z,61.33
2022-09-15T01:16:13.384Z,55.08
2022-09-15T01:18:59.017Z,55.63
2022-09-15T01:21:32.723Z,60.70
2022-09-15T01:27:40.434Z,60.17
2022-09-15T01:30:16.793Z,61.85
2022-09-15T01:33:06.214Z,53.22
2022-09-15T01:35:44.976Z,61.55
2022-09-15T01:38:54.311Z,53.70
2022-09-15T01:41:28.609Z,63.38
2022-09-15T01:44:29.789Z,58.13
2022-09-15T01:47:00.103Z,57.85
2022-09-15T01:49:31.064Z,55.25
2022-09-15T01:52:03.591Z,63.03
2022-09-15T01:54:33.582Z,56.63
2022-09-15T01:57:05.240Z,54.22
2022-09-15T01:59:35.200Z,49.92
2022-09-15T02:02:10.076Z,52.58
2022-09-15T02:04:48.752Z,55.67
2022-09-15T02:07:21.479Z,62.75
2022-09-15T02:09:54.645Z,55.55
2022-09-15T02:12:50.810Z,59.20
2022-09-15T02:15:33.831Z,62.13
2022-09-15T02:18:03.745Z,59.63
2022-09-15T02:20:58.151Z,56.28
2022-09-15T02:23:35.305Z,64.68
2022-09-15T02:26:08.558Z,57.42
2022-09-15T02:28:40.533Z,58.00
2022-09-15T02:31:24.103Z,57.80
2022-09-15T02:34:02.580Z,56.22
2022-09-15T02:36:30.497Z,57.40
2022-09-15T02:39:01.331Z,56.80
2022-09-15T02:41:30.383Z,57.95
2022-09-15T02:44:00.119Z,56.45
2022-09-15T02:46:28.474Z,58.95
2022-09-15T02:48:56.934Z,61.13
2022-09-15T02:51:23.727Z,55.35
2022-09-15T02:53:50.997Z,70.80
2022-09-15T02:56:18.150Z,58.08
2022-09-15T02:58:50.868Z,56.40
2022-09-15T03:01:18.787Z,56.25
2022-09-15T03:04:01.516Z,68.63
2022-09-15T03:06:34.755Z,56.03
2022-09-15T03:09:08.335Z,64.00
2022-09-15T03:11:36.471Z,60.95
2022-09-15T03:14:06.248Z,61.55
2022-09-15T03:16:34.772Z,59.42
2022-09-15T03:19:02.833Z,57.65
2022-09-15T03:21:30.036Z,58.38
2022-09-15T03:23:58.399Z,55.92
2022-09-15T03:26:25.596Z,58.75
2022-09-15T03:28:52.569Z,55.53
2022-09-15T03:31:19.915Z,58.13
2022-09-15T03:37:26.042Z,60.67
2022-09-15T03:39:53.635Z,56.28
2022-09-15T03:42:24.597Z,76.28
2022-09-15T03:45:12.013Z,66.32
2022-09-15T03:47:41.642Z,63.42
2022-09-15T03:50:09.291Z,52.03
2022-09-15T03:52:58.722Z,58.30
2022-09-15T03:55:26.513Z,50.35
2022-09-15T03:57:53.650Z,50.75
2022-09-15T04:00:28.600Z,58.33
2022-09-15T04:02:55.545Z,60.90
2022-09-15T04:05:22.332Z,54.92
2022-09-15T04:07:50.412Z,53.67
2022-09-15T04:10:17.515Z,62.60
2022-09-15T04:12:44.369Z,61.95
2022-09-15T04:15:11.495Z,57.65
2022-09-15T04:17:38.815Z,60.67
2022-09-15T04:20:06.332Z,61.80
2022-09-15T04:22:33.338Z,49.97
2022-09-15T04:25:00.473Z,53.72
2022-09-15T04:27:27.955Z,73.43
2022-09-15T04:29:54.907Z,59.67
2022-09-15T04:32:22.046Z,56.03
2022-09-15T04:34:49.024Z,58.88
2022-09-15T04:37:15.969Z,58.83
2022-09-15T04:39:42.820Z,61.13
2022-09-15T04:42:10.644Z,70.43
2022-09-15T04:45:10.151Z,61.53
2022-09-15T04:47:42.145Z,64.25
2022-09-15T04:50:13.062Z,59.90
2022-09-15T04:52:40.311Z,67.57
2022-09-15T04:55:07.600Z,63.90
2022-09-15T04:57:34.539Z,62.33
2022-09-15T05:00:04.338Z,55.75
2022-09-15T05:02:32.548Z,57.28
2022-09-15T05:05:06.347Z,49.70
2022-09-15T05:07:57.502Z,57.58
2022-09-15T05:10:38.366Z,54.20
2022-09-15T05:13:08.495Z,60.53
2022-09-15T05:15:35.904Z,58.28
2022-09-15T05:18:03.111Z,70.25
2022-09-15T05:20:32.876Z,62.67
2022-09-15T05:23:00.027Z,59.92
2022-09-15T05:25:30.364Z,66.63
2022-09-15T05:28:18.107Z,65.68
2022-09-15T05:30:45.340Z,66.10
2022-09-15T05:33:12.302Z,70.90
2022-09-15T05:35:39.279Z,51.97
2022-09-15T05:38:15.196Z,58.72
2022-09-15T05:44:24.177Z,65.78
2022-09-15T05:46:52.422Z,58.47
2022-09-15T05:49:19.410Z,77.15
2022-09-15T05:51:46.502Z,67.35
2022-09-15T05:54:58.861Z,71.03
2022-09-15T05:57:48.867Z,66.57
2022-09-15T06:00:16.087Z,61.55
2022-09-15T06:02:43.333Z,63.45
2022-09-15T06:05:10.504Z,58.78
2022-09-15T06:07:39.120Z,59.92
2022-09-15T06:10:07.805Z,51.35
2022-09-15T06:12:34.994Z,39.65
2022-09-15T06:15:02.123Z,39.55
2022-09-15T06:17:32.038Z,48.92
2022-09-15T06:19:58.874Z,44.53
2022-09-15T06:22:25.957Z,44.97
2022-09-15T06:24:52.908Z,42.20
2022-09-15T06:27:20.606Z,61.25
2022-09-15T06:29:47.492Z,56.30
2022-09-15T06:32:14.379Z,42.80
2022-09-15T06:34:41.208Z,39.97
2022-09-15T06:37:08.200Z,40.50
2022-09-15T06:39:35.266Z,38.38
2022-09-15T06:42:04.151Z,35.25
2022-09-15T06:44:33.058Z,36.10
2022-09-15T06:46:59.892Z,34.58
2022-09-15T06:49:26.770Z,38.28
2022-09-15T06:51:53.663Z,25.95
2022-09-15T06:54:20.796Z,23.63
2022-09-15T06:56:47.698Z,30.15
2022-09-15T06:59:15.743Z,28.30
2022-09-15T07:01:43.389Z,29.65
2022-09-15T07:04:10.798Z,25.98
2022-09-15T07:06:39.211Z,35.45
2022-09-15T07:09:06.991Z,28.52
2022-09-15T07:11:33.979Z,22.25
2022-09-15T07:14:00.759Z,20.77
2022-09-15T07:16:27.809Z,21.15
2022-09-15T07:18:56.908Z,26.15
2022-09-15T07:21:24.823Z,21.25
2022-09-15T07:23:52.372Z,17.38
2022-09-15T07:26:21.966Z,26.02
2022-09-15T07:28:54.658Z,22.67
2022-09-15T07:31:23.631Z,17.17
2022-09-15T07:33:50.551Z,17.45
2022-09-15T07:36:17.857Z,20.27
2022-09-15T07:38:47.889Z,19.10
2022-09-15T07:41:20.582Z,26.45
2022-09-15T07:43:51.956Z,22.88
2022-09-15T07:46:19.938Z,20.33
2022-09-15T07:48:48.222Z,20.15
2022-09-15T07:51:16.422Z,19.73
2022-09-15T07:53:44.657Z,27.40
2022-09-15T07:56:11.801Z,18.83
2022-09-15T07:58:38.891Z,24.27
2022-09-15T08:01:07.939Z,35.25
2022-09-15T08:03:34.858Z,22.35
2022-09-15T08:06:03.389Z,22.45
2022-09-15T08:08:30.483Z,22.67
2022-09-15T08:10:57.716Z,27.23
2022-09-15T08:13:25.051Z,24.65
2022-09-15T08:15:52.398Z,30.95
2022-09-15T08:18:19.280Z,18.08
2022-09-15T08:20:46.142Z,29.60
2022-09-15T08:23:12.935Z,24.27
2022-09-15T08:25:39.697Z,16.50
2022-09-15T08:28:06.460Z,23.60
2022-09-15T08:30:33.401Z,23.10
2022-09-15T08:33:00.183Z,23.40
2022-09-15T08:35:27.007Z,23.85
2022-09-15T08:37:55.271Z,29.70
2022-09-15T08:40:30.023Z,31.95
2022-09-15T08:42:58.322Z,27.10
2022-09-15T08:45:31.490Z,23.73
2022-09-15T08:48:01.458Z,24.10
2022-09-15T08:50:38.966Z,23.10
2022-09-15T08:53:13.531Z,16.70
2022-09-15T08:55:50.970Z,23.05
2022-09-15T08:58:26.855Z,24.75
2022-09-15T09:01:38.255Z,25.20
2022-09-15T09:04:23.710Z,27.20
2022-09-15T09:07:15.175Z,20.30
2022-09-15T09:10:07.047Z,19.88
2022-09-15T09:13:15.304Z,18.50
2022-09-15T09:16:23.861Z,17.38
2022-09-15T09:18:51.071Z,17.38
2022-09-15T09:21:27.150Z,8.00
2022-09-15T09:24:08.299Z,23.02
2022-09-15T09:26:36.318Z,17.58
2022-09-15T09:29:19.027Z,21.95
2022-09-15T09:31:47.562Z,7.72
2022-09-15T09:35:03.931Z,18.58
2022-09-15T09:37:31.173Z,19.55
2022-09-15T09:39:57.946Z,14.82
2022-09-15T09:42:29.651Z,10.73
2022-09-15T09:44:57.063Z,13.27
2022-09-15T09:47:34.921Z,12.02
2022-09-15T09:50:02.204Z,20.52
2022-09-15T09:52:37.205Z,16.02
2022-09-15T09:55:20.665Z,14.68
2022-09-15T09:57:47.715Z,17.17
2022-09-15T10:00:37.058Z,18.83
2022-09-15T10:03:11.856Z,16.70
2022-09-15T10:05:39.417Z,17.02
2022-09-15T10:08:06.592Z,16.92
2022-09-15T10:10:33.412Z,17.73
2022-09-15T10:13:02.672Z,16.42
2022-09-15T10:15:34.165Z,17.95
2022-09-15T10:18:01.774Z,8.35
2022-09-15T10:20:35.647Z,19.90
2022-09-15T10:23:05.814Z,17.65
2022-09-15T10:25:57.569Z,11.90
2022-09-15T10:28:25.735Z,13.57
2022-09-15T10:31:02.849Z,20.17
2022-09-15T10:33:35.452Z,12.45
2022-09-15T10:39:06.538Z,21.77
2022-09-15T10:41:38.095Z,13.50
2022-09-15T10:44:26.161Z,12.48
2022-09-15T10:46:59.196Z,9.38
2022-09-15T10:49:45.594Z,18.75
2022-09-15T10:52:30.273Z,11.75
2022-09-15T10:55:13.123Z,8.95
2022-09-15T10:57:51.983Z,13.43
2022-09-15T11:00:24.110Z,19.05
2022-09-15T11:03:09.589Z,11.95
2022-09-15T11:06:05.557Z,10.20
2022-09-15T11:08:54.427Z,7.72
2022-09-15T11:11:40.210Z,12.68
2022-09-15T11:14:32.526Z,8.73
2022-09-15T11:17:31.429Z,21.75
2022-09-15T11:20:41.527Z,14.00
2022-09-15T11:23:21.528Z,9.88
2022-09-15T11:26:05.020Z,17.52
2022-09-15T11:28:49.601Z,18.63
2022-09-15T11:31:24.565Z,11.18
2022-09-15T11:33:58.865Z,11.32
2022-09-15T11:36:33.848Z,6.82
2022-09-15T11:39:08.689Z,13.63
2022-09-15T11:41:59.689Z,14.35
2022-09-15T11:44:39.259Z,8.45
2022-09-15T11:47:26.783Z,7.53
2022-09-15T11:49:56.960Z,17.45
2022-09-15T11:52:55.946Z,25.80
2022-09-15T11:55:37.547Z,15.20
2022-09-15T11:58:24.840Z,18.02
2022-09-15T12:00:55.660Z,14.75
2022-09-15T12:03:41.529Z,10.95
2022-09-15T12:06:18.352Z,10.73
2022-09-15T12:09:01.442Z,11.82
2022-09-15T12:14:00.234Z,11.15
2022-09-15T12:16:27.499Z,8.77
2022-09-15T12:19:35.863Z,20.42
2022-09-15T12:22:25.390Z,11.80
2022-09-15T12:24:58.880Z,12.20
2022-09-15T12:27:27.963Z,13.32
2022-09-15T12:29:59.890Z,19.50
2022-09-15T12:32:34.865Z,26.67
2022-09-15T12:35:15.749Z,14.25
2022-09-15T12:37:46.116Z,17.20
2022-09-15T12:40:34.454Z,12.85
2022-09-15T12:43:18.573Z,18.52
2022-09-15T12:46:03.615Z,19.00
2022-09-15T12:48:32.858Z,13.88
2022-09-15T12:51:09.447Z,11.52
2022-09-15T12:53:50.440Z,15.45
2022-09-15T12:56:28.063Z,10.15
2022-09-15T12:58:55.449Z,22.20
2022-09-15T13:01:22.239Z,14.52
2022-09-15T13:03:49.527Z,12.82
2022-09-15T13:06:26.349Z,17.77
2022-09-15T13:08:53.109Z,13.32
2022-09-15T13:11:37.985Z,21.40
2022-09-15T13:14:07.686Z,17.33
2022-09-15T13:16:40.833Z,13.68
2022-09-15T13:19:15.071Z,12.10
2022-09-15T13:21:45.026Z,16.27
2022-09-15T13:24:19.165Z,14.60
2022-09-15T13:26:50.584Z,12.10
2022-09-15T13:29:18.206Z,22.27
2022-09-15T13:31:57.976Z,9.48
2022-09-15T13:35:04.098Z,16.08
2022-09-15T13:38:07.970Z,14.50
2022-09-15T13:40:58.186Z,23.67
2022-09-15T13:43:37.446Z,19.67
2022-09-15T13:46:27.486Z,17.65
2022-09-15T13:49:19.367Z,12.70
2022-09-15T13:51:53.525Z,15.85
2022-09-15T13:54:21.038Z,8.05
2022-09-15T13:56:49.108Z,14.45
2022-09-15T13:59:24.202Z,9.23
2022-09-15T14:01:52.797Z,13.35
2022-09-15T14:04:22.838Z,20.65
2022-09-15T14:06:52.055Z,19.75
2022-09-15T14:09:21.931Z,22.35
2022-09-15T14:12:10.826Z,25.02
2022-09-15T14:14:45.593Z,19.98
2022-09-15T14:17:22.701Z,15.45
2022-09-15T14:19:52.724Z,11.48
2022-09-15T14:22:33.982Z,15.57
2022-09-15T14:25:07.000Z,11.30
2022-09-15T14:27:35.523Z,12.15
2022-09-15T14:30:05.429Z,11.55
2022-09-15T14:32:37.027Z,17.38
2022-09-15T14:35:09.478Z,12.43
2022-09-15T14:37:36.512Z,7.65
2022-09-15T14:40:19.662Z,19.50
2022-09-15T14:42:47.861Z,11.38
2022-09-15T14:48:07.763Z,25.15
2022-09-15T14:50:35.321Z,20.40
2022-09-15T14:53:03.973Z,18.05
2022-09-15T14:55:41.164Z,22.17
2022-09-15T14:58:15.120Z,26.98
2022-09-15T15:00:55.977Z,13.65
2022-09-15T15:03:52.032Z,16.38
2022-09-15T15:06:35.353Z,18.45
2022-09-15T15:09:17.134Z,14.40
2022-09-15T15:11:44.335Z,17.27
2022-09-15T15:14:12.349Z,23.38
2022-09-15T15:16:50.428Z,20.30
2022-09-15T15:19:34.579Z,29.52
2022-09-15T15:22:13.976Z,13.10
2022-09-15T15:24:43.841Z,15.68
2022-09-15T15:27:26.452Z,20.98
2022-09-15T15:29:53.347Z,27.00
2022-09-15T15:32:27.981Z,71.75
2022-09-15T15:34:59.171Z,18.15
2022-09-15T15:37:34.027Z,30.40
2022-09-15T15:40:08.138Z,16.13
2022-09-15T15:42:35.400Z,17.85
2022-09-15T15:45:05.129Z,23.30
2022-09-15T15:47:35.827Z,16.67
2022-09-15T15:50:13.587Z,24.98
2022-09-15T15:52:41.799Z,17.50
2022-09-15T15:55:08.671Z,15.10
2022-09-15T15:57:38.322Z,21.70
2022-09-15T16:00:22.725Z,23.85
2022-09-15T16:02:53.239Z,20.13
2022-09-15T16:05:22.174Z,19.70
2022-09-15T16:07:51.549Z,34.58
2022-09-15T16:10:21.669Z,19.83
2022-09-15T16:12:49.596Z,20.30
2022-09-15T16:15:19.753Z,11.60
2022-09-15T16:17:47.320Z,10.77
2022-09-15T16:20:17.418Z,11.43
2022-09-15T16:22:45.733Z,15.63
2022-09-15T16:25:16.984Z,8.85
2022-09-15T16:27:43.786Z,12.38
2022-09-15T16:30:13.835Z,12.45
2022-09-15T16:32:41.538Z,16.55
2022-09-15T16:35:24.244Z,20.77
2022-09-15T16:37:51.186Z,15.50
2022-09-15T16:40:21.534Z,17.10
2022-09-15T16:42:48.969Z,11.93
2022-09-15T16:45:29.936Z,13.23
2022-09-15T16:47:56.780Z,9.07
2022-09-15T16:50:23.683Z,14.10
2022-09-15T16:52:51.583Z,21.63
2022-09-15T16:55:39.047Z,9.43
2022-09-15T16:58:06.746Z,17.80
2022-09-15T17:00:36.609Z,16.10
2022-09-15T17:03:07.188Z,13.02
2022-09-15T17:05:45.150Z,11.88
2022-09-15T17:08:14.911Z,16.10
2022-09-15T17:10:41.918Z,11.85
2022-09-15T17:13:09.127Z,13.30
2022-09-15T17:15:40.592Z,18.75
2022-09-15T17:18:09.980Z,18.33
2022-09-15T17:20:39.300Z,12.55
2022-09-15T17:23:24.753Z,16.20
2022-09-15T17:25:53.801Z,12.32
2022-09-15T17:28:22.423Z,10.40
2022-09-15T17:30:50.784Z,15.23
2022-09-15T17:33:19.126Z,15.60
2022-09-15T17:35:46.378Z,18.00
2022-09-15T17:38:14.354Z,23.60
2022-09-15T17:40:42.124Z,16.15
2022-09-15T17:43:17.555Z,17.08
2022-09-15T17:45:45.100Z,14.93
2022-09-15T17:48:12.444Z,13.88
2022-09-15T17:50:40.024Z,15.32
2022-09-15T17:53:13.602Z,12.23
2022-09-15T17:55:41.361Z,9.10
2022-09-15T17:58:09.826Z,10.15
2022-09-15T18:00:38.562Z,19.00
2022-09-15T18:03:15.744Z,19.23
2022-09-15T18:05:42.571Z,17.80
2022-09-15T18:08:09.524Z,31.77
2022-09-15T18:10:36.829Z,30.42
2022-09-15T18:13:11.840Z,17.58
2022-09-15T18:15:42.913Z,12.35
2022-09-15T18:18:14.279Z,22.92
2022-09-15T18:20:41.587Z,26.15
2022-09-15T18:23:12.652Z,24.50
2022-09-15T18:25:39.427Z,17.20
2022-09-15T18:28:06.516Z,23.10
2022-09-15T18:30:38.449Z,17.75
2022-09-15T18:33:05.523Z,27.67
2022-09-15T18:35:32.489Z,11.38
2022-09-15T18:38:00.498Z,18.33
2022-09-15T18:40:28.074Z,20.23
2022-09-15T18:42:56.535Z,14.60
2022-09-15T18:45:23.923Z,19.10
2022-09-15T18:47:52.720Z,14.45
2022-09-15T18:50:22.518Z,20.15
2022-09-15T18:52:49.337Z,28.27
2022-09-15T18:55:19.321Z,25.20
2022-09-15T18:57:47.499Z,18.67
2022-09-15T19:00:21.611Z,21.05
2022-09-15T19:02:48.779Z,16.73
2022-09-15T19:05:16.448Z,18.45
2022-09-15T19:07:44.303Z,17.35
2022-09-15T19:10:12.891Z,14.82
2022-09-15T19:12:40.813Z,19.60
2022-09-15T19:15:11.376Z,17.45
2022-09-15T19:17:39.393Z,28.10
2022-09-15T19:20:08.441Z,19.65
2022-09-15T19:22:35.946Z,31.02
2022-09-15T19:25:03.889Z,24.70
2022-09-15T19:27:30.810Z,17.13
2022-09-15T19:29:57.559Z,15.45
2022-09-15T19:32:24.861Z,12.85
2022-09-15T19:34:52.164Z,16.52
2022-09-15T19:37:20.221Z,25.05
2022-09-15T19:39:48.904Z,19.60
2022-09-15T19:42:16.768Z,19.52
2022-09-15T19:44:43.721Z,24.10
2022-09-15T19:47:11.135Z,21.90
2022-09-15T19:49:38.619Z,21.65
2022-09-15T19:52:06.539Z,23.70
2022-09-15T19:54:37.140Z,24.50
2022-09-15T19:57:04.517Z,14.50
2022-09-15T19:59:32.067Z,16.02
2022-09-15T20:01:59.848Z,21.30
2022-09-15T20:04:27.417Z,17.73
2022-09-15T20:06:58.558Z,9.95
2022-09-15T20:09:26.336Z,7.68
2022-09-15T20:11:53.170Z,20.77
2022-09-15T20:14:20.296Z,9.05
2022-09-15T20:16:47.285Z,14.23
2022-09-15T20:19:14.920Z,14.43
2022-09-15T20:21:51.206Z,17.60
2022-09-15T20:24:19.229Z,16.27
2022-09-15T20:26:46.186Z,10.82
2022-09-15T20:29:13.345Z,11.70
2022-09-15T20:31:41.046Z,6.60
2022-09-15T20:34:08.306Z,8.65
2022-09-15T20:36:36.867Z,11.02
2022-09-15T20:39:08.887Z,10.55
2022-09-15T20:41:36.238Z,10.57
2022-09-15T20:44:03.686Z,9.93
2022-09-15T20:46:31.370Z,11.13
2022-09-15T20:48:58.275Z,12.23
2022-09-15T20:51:27.832Z,10.27
2022-09-15T20:53:56.138Z,7.07
2022-09-15T20:56:25.645Z,15.07
2022-09-15T20:58:54.275Z,11.70
2022-09-15T21:01:24.051Z,5.85
2022-09-15T21:03:51.726Z,20.08
2022-09-15T21:06:20.956Z,7.35
2022-09-15T21:08:49.215Z,11.40
2022-09-15T21:11:17.539Z,11.20
2022-09-15T21:13:44.913Z,8.48
2022-09-15T21:16:15.351Z,8.25
2022-09-15T21:18:44.515Z,9.95
2022-09-15T21:21:15.251Z,11.00
2022-09-15T21:23:50.019Z,6.88
2022-09-15T21:26:21.192Z,13.25
2022-09-15T21:28:48.758Z,19.85
2022-09-15T21:31:20.951Z,6.88
2022-09-15T21:33:48.720Z,14.02
2022-09-15T21:36:20.528Z,17.33
2022-09-15T21:38:49.139Z,14.80
2022-09-15T21:41:21.976Z,13.30
2022-09-15T21:43:53.086Z,13.18
2022-09-15T21:46:21.542Z,17.70
2022-09-15T21:48:48.811Z,12.60
2022-09-15T21:51:24.258Z,21.75
2022-09-15T21:53:56.248Z,14.48
2022-09-15T21:56:24.298Z,16.88
2022-09-15T21:58:51.446Z,12.20
2022-09-15T22:01:19.828Z,19.75
2022-09-15T22:04:03.843Z,29.00
2022-09-15T22:06:40.338Z,16.13
2022-09-15T22:09:13.099Z,14.73
2022-09-15T22:11:43.947Z,9.02
2022-09-15T22:14:11.902Z,10.35
2022-09-15T22:16:40.153Z,15.60
2022-09-15T22:19:09.756Z,7.35
2022-09-15T22:21:37.166Z,7.57
2022-09-15T22:24:07.924Z,18.35
2022-09-15T22:26:36.850Z,16.55
2022-09-15T22:29:06.610Z,11.88
2022-09-15T22:31:39.640Z,12.27
2022-09-15T22:34:06.731Z,17.50
2022-09-15T22:36:33.924Z,12.82
2022-09-15T22:39:05.349Z,16.80
2022-09-15T22:41:34.731Z,14.60
2022-09-15T22:44:02.649Z,12.50
2022-09-15T22:46:29.556Z,19.70
2022-09-15T22:48:56.593Z,14.63
2022-09-15T22:51:26.053Z,13.57
2022-09-15T22:53:54.780Z,12.07
2022-09-15T22:56:23.345Z,16.52
2022-09-15T22:58:53.873Z,17.02
2022-09-15T23:01:29.582Z,13.05
2022-09-15T23:04:01.816Z,18.88
2022-09-15T23:06:31.154Z,13.20
2022-09-15T23:09:04.234Z,11.15
2022-09-15T23:11:34.362Z,10.25
2022-09-15T23:14:02.686Z,11.85
2022-09-15T23:16:30.766Z,15.77
2022-09-15T23:18:58.522Z,12.40
2022-09-15T23:21:25.640Z,11.77
2022-09-15T23:23:54.097Z,14.23
2022-09-15T23:26:22.428Z,11.88
2022-09-15T23:28:49.809Z,15.77
2022-09-15T23:31:17.934Z,14.48
2022-09-15T23:33:45.303Z,18.27
2022-09-15T23:36:15.534Z,12.30
2022-09-15T23:38:49.286Z,14.48
2022-09-15T23:41:17.319Z,8.75
2022-09-15T23:43:48.767Z,17.40
2022-09-15T23:46:21.206Z,19.85
2022-09-15T23:48:54.194Z,18.90
2022-09-15T23:51:21.033Z,11.07
2022-09-15T23:53:47.988Z,14.00
2022-09-15T23:56:18.577Z,11.52
2022-09-15T23:58:45.497Z,12.70
